»·PEaware :: ABX995 KSFO-KPDX

ABX995 :: KSFO-KPDX

FLIGHT INFORMATION

Flight Status: Arrived
Operator:
Airborne Express
More flights by this operator :: More flights under this callsign
Pilot: Max W. (2591)
Aircraft: BOEING 777-200
(B772)
More flights by this aircraft type
Origin: KSFO San Francisco Intl
United States
Destination: KPDX Portland Intl
United States
More flights between these airports :: More routes between these airports
Route: TRUKN2 GRTFL MACHU TMBRS2
File this flight plan on PilotEdge
Remarks: FAILED THE CAT 2 SORRY
Altitude:
(Current/Filed)
35,000ft
Speed:
(Current/Filed)
450kts
Departed: 10-Mar-19 10:39 AM
Arrived: 10-Mar-19 11:59 AM
Distance/Time
Traveled:
478nm/1:19
Distance/Time
To Go:
Arrived

Flight Plot

Page will automatically refresh every two minutes.

Flight plan parsing failed; only flown route is shown


Map Options




Map Legend


Flown Route
Filed Route
Departure Airport
Arrival Airport
Navaid (VOR, NDB)
Fix

Horizontal Profiles

Position Reports

Time Latitude Longitude Heading Altitude Ground
Speed
10-Mar-19 10:20 37.634916 -122.390063 26 26ft 0kts
10-Mar-19 10:21 37.634916 -122.390063 26 26ft 0kts
10-Mar-19 10:22 37.634916 -122.390063 26 27ft 0kts
10-Mar-19 10:23 37.634916 -122.390063 26 27ft 0kts
10-Mar-19 10:24 37.634334 -122.390438 26 27ft 2kts
10-Mar-19 10:25 37.634158 -122.390550 26 27ft 0kts
10-Mar-19 10:26 37.634158 -122.390550 26 27ft 0kts
10-Mar-19 10:27 37.634093 -122.390990 204 27ft 0kts
10-Mar-19 10:28 37.631469 -122.392530 229 27ft 3kts
10-Mar-19 10:29 37.629269 -122.390979 117 27ft 10kts
10-Mar-19 10:30 37.627111 -122.385849 118 27ft 14kts
10-Mar-19 10:31 37.624800 -122.380279 117 27ft 17kts
10-Mar-19 10:32 37.622324 -122.374400 118 27ft 15kts
10-Mar-19 10:33 37.619406 -122.367473 116 27ft 23kts
10-Mar-19 10:34 37.616499 -122.360541 118 27ft 29kts
10-Mar-19 10:35 37.615023 -122.357007 135 27ft 0kts
10-Mar-19 10:36 37.615023 -122.357007 135 27ft 0kts
10-Mar-19 10:37 37.613780 -122.357731 288 27ft 14kts
10-Mar-19 10:38 37.632583 -122.393623 329 2247ft 187kts
10-Mar-19 10:39 37.674724 -122.354258 69 6664ft 254kts
10-Mar-19 10:40 37.702592 -122.263838 69 10308ft 292kts
10-Mar-19 10:41 37.776738 -122.210290 359 14479ft 361kts
10-Mar-19 10:42 37.882128 -122.218348 356 18759ft 393kts
10-Mar-19 10:43 37.993645 -122.221921 357 21696ft 414kts
10-Mar-19 10:44 38.112544 -122.225051 357 25811ft 440kts
10-Mar-19 10:45 38.238394 -122.228418 358 29593ft 463kts
10-Mar-19 10:46 38.366964 -122.231858 357 33559ft 460kts
10-Mar-19 10:47 38.496110 -122.245563 354 35056ft 480kts
10-Mar-19 10:48 38.631580 -122.260456 355 35059ft 487kts
10-Mar-19 10:49 38.766186 -122.274584 355 35063ft 485kts
10-Mar-19 10:50 38.900669 -122.288674 355 35059ft 482kts
10-Mar-19 10:51 39.033989 -122.302722 355 35065ft 480kts
10-Mar-19 10:52 39.167183 -122.316792 355 35076ft 478kts
10-Mar-19 10:53 39.299782 -122.330860 356 35085ft 478kts
10-Mar-19 10:54 39.432114 -122.344955 356 35088ft 477kts
10-Mar-19 10:55 39.564748 -122.359136 356 35095ft 477kts
10-Mar-19 10:56 39.696740 -122.373302 356 35105ft 476kts
10-Mar-19 10:57 39.828707 -122.387520 356 35114ft 476kts
10-Mar-19 10:58 39.961137 -122.401844 356 35121ft 477kts
10-Mar-19 10:59 40.092891 -122.416152 356 35126ft 474kts
10-Mar-19 11:00 40.224560 -122.430502 356 35127ft 473kts
10-Mar-19 11:01 40.355561 -122.444837 356 35123ft 472kts
10-Mar-19 11:02 40.486130 -122.459183 356 35120ft 470kts
10-Mar-19 11:03 40.616547 -122.473564 357 35115ft 468kts
10-Mar-19 11:04 40.745837 -122.487878 357 35106ft 466kts
10-Mar-19 11:05 40.874994 -122.502235 357 35091ft 464kts
10-Mar-19 11:06 41.003322 -122.516553 357 35071ft 462kts
10-Mar-19 11:07 41.130999 -122.530856 357 35054ft 460kts
10-Mar-19 11:08 41.258693 -122.545169 357 35061ft 459kts
10-Mar-19 11:09 41.385635 -122.559523 357 35068ft 458kts
10-Mar-19 11:10 41.512719 -122.573949 358 35079ft 457kts
10-Mar-19 11:11 41.639462 -122.583092 0 35093ft 456kts
10-Mar-19 11:12 41.765983 -122.591064 0 35098ft 455kts
10-Mar-19 11:13 41.892888 -122.599308 0 35100ft 455kts
10-Mar-19 11:14 42.019446 -122.607628 0 35103ft 455kts
10-Mar-19 11:15 42.145505 -122.615951 0 35108ft 451kts
10-Mar-19 11:16 42.270718 -122.624286 0 35117ft 450kts
10-Mar-19 11:17 42.395207 -122.632621 0 35118ft 449kts
10-Mar-19 11:18 42.520227 -122.641011 0 35110ft 448kts
10-Mar-19 11:19 42.644370 -122.649312 0 35124ft 446kts
10-Mar-19 11:20 42.768545 -122.657727 1 35138ft 445kts
10-Mar-19 11:21 42.891879 -122.666107 1 35150ft 444kts
10-Mar-19 11:22 43.014941 -122.674510 1 35162ft 442kts
10-Mar-19 11:24 43.138026 -122.682893 1 35169ft 441kts
10-Mar-19 11:25 43.260261 -122.691302 1 35187ft 440kts
10-Mar-19 11:26 43.382695 -122.699764 1 35198ft 439kts
10-Mar-19 11:27 43.504507 -122.708173 1 35202ft 438kts
10-Mar-19 11:28 43.626030 -122.716600 1 35206ft 438kts
10-Mar-19 11:29 43.748044 -122.725086 1 35211ft 438kts
10-Mar-19 11:30 43.865256 -122.733189 1 34891ft 399kts
10-Mar-19 11:31 43.972820 -122.740717 2 32552ft 379kts
10-Mar-19 11:32 44.082328 -122.748430 2 30394ft 393kts
10-Mar-19 11:33 44.188591 -122.751392 7 28233ft 371kts
10-Mar-19 11:34 44.289588 -122.739715 8 26062ft 356kts
10-Mar-19 11:35 44.386589 -122.729895 9 23992ft 343kts
10-Mar-19 11:36 44.480531 -122.720554 8 21965ft 333kts
10-Mar-19 11:37 44.568733 -122.711779 9 20933ft 302kts
10-Mar-19 11:38 44.654362 -122.703231 8 19487ft 316kts
10-Mar-19 11:39 44.741115 -122.694488 8 17733ft 307kts
10-Mar-19 11:40 44.826567 -122.685891 7 15657ft 310kts
10-Mar-19 11:41 44.911604 -122.677322 7 14081ft 299kts
10-Mar-19 11:42 44.990480 -122.669375 7 13182ft 275kts
10-Mar-19 11:42 45.054073 -122.662932 6 12015ft 274kts
10-Mar-19 11:44 45.142832 -122.653880 6 10473ft 272kts
10-Mar-19 11:45 45.216092 -122.646392 7 9555ft 259kts
10-Mar-19 11:45 45.276073 -122.656921 345 8632ft 271kts
10-Mar-19 11:46 45.346854 -122.696384 341 7628ft 269kts
10-Mar-19 11:47 45.415832 -122.734185 341 6654ft 261kts
10-Mar-19 11:48 45.482727 -122.770951 342 5711ft 253kts
10-Mar-19 11:49 45.546638 -122.807424 332 4972ft 238kts
10-Mar-19 11:50 45.594434 -122.875122 315 3808ft 249kts
10-Mar-19 11:51 45.647672 -122.932268 1 3036ft 225kts
10-Mar-19 11:52 45.691181 -122.894170 66 3054ft 178kts
10-Mar-19 11:53 45.676127 -122.829267 117 3060ft 174kts
10-Mar-19 11:54 45.652798 -122.769696 117 2329ft 152kts
10-Mar-19 11:55 45.633818 -122.720858 118 1577ft 133kts
10-Mar-19 11:56 45.616227 -122.675644 118 895ft 130kts
10-Mar-19 11:57 45.598983 -122.631200 119 221ft 125kts
10-Mar-19 11:58 45.586908 -122.600703 156 44ft 18kts
10-Mar-19 11:59 45.584360 -122.601900 256 44ft 0kts

Navigation Log

Ident Type
Flight plan parsing failed, navigation log unavailable